sensor_id;sensor_type;location;lat;lon;timestamp;P1;durP1;ratioP1;P2;durP2;ratioP2
53714;SDS011;39608;55.630;37.864;2022-09-28T00:03:24;2.72;;;2.53;;
53714;SDS011;39608;55.630;37.864;2022-09-28T00:08:27;4.00;;;2.80;;
53714;SDS011;39608;55.630;37.864;2022-09-28T00:13:31;4.47;;;2.70;;
53714;SDS011;39608;55.630;37.864;2022-09-28T00:18:33;3.28;;;2.67;;
53714;SDS011;39608;55.630;37.864;2022-09-28T00:23:36;5.30;;;3.05;;
53714;SDS011;39608;55.630;37.864;2022-09-28T00:29:01;5.85;;;3.58;;
53714;SDS011;39608;55.630;37.864;2022-09-28T00:34:03;3.22;;;2.90;;
53714;SDS011;39608;55.630;37.864;2022-09-28T00:39:06;3.55;;;3.08;;
53714;SDS011;39608;55.630;37.864;2022-09-28T00:49:40;3.30;;;2.55;;
53714;SDS011;39608;55.630;37.864;2022-09-28T00:54:45;4.60;;;2.30;;
53714;SDS011;39608;55.630;37.864;2022-09-28T00:59:51;3.40;;;2.40;;
53714;SDS011;39608;55.630;37.864;2022-09-28T01:04:53;2.25;;;2.10;;
53714;SDS011;39608;55.630;37.864;2022-09-28T01:09:57;2.85;;;2.40;;
53714;SDS011;39608;55.630;37.864;2022-09-28T01:15:01;2.17;;;1.98;;
53714;SDS011;39608;55.630;37.864;2022-09-28T01:20:06;2.75;;;2.50;;
53714;SDS011;39608;55.630;37.864;2022-09-28T01:25:30;2.45;;;2.22;;
53714;SDS011;39608;55.630;37.864;2022-09-28T01:30:42;2.33;;;2.13;;
53714;SDS011;39608;55.630;37.864;2022-09-28T01:35:52;2.45;;;2.25;;
53714;SDS011;39608;55.630;37.864;2022-09-28T01:41:00;3.00;;;2.55;;
53714;SDS011;39608;55.630;37.864;2022-09-28T01:46:05;3.58;;;2.05;;
53714;SDS011;39608;55.630;37.864;2022-09-28T01:51:15;3.05;;;2.35;;
53714;SDS011;39608;55.630;37.864;2022-09-28T02:01:27;2.45;;;2.25;;
53714;SDS011;39608;55.630;37.864;2022-09-28T02:06:35;2.38;;;2.10;;
53714;SDS011;39608;55.630;37.864;2022-09-28T02:11:42;2.63;;;2.42;;
53714;SDS011;39608;55.630;37.864;2022-09-28T02:16:54;2.10;;;2.00;;
53714;SDS011;39608;55.630;37.864;2022-09-28T02:21:58;2.05;;;1.92;;
53714;SDS011;39608;55.630;37.864;2022-09-28T02:27:09;2.42;;;1.73;;
53714;SDS011;39608;55.630;37.864;2022-09-28T02:32:16;1.60;;;1.50;;
53714;SDS011;39608;55.630;37.864;2022-09-28T02:37:20;1.55;;;1.45;;
53714;SDS011;39608;55.630;37.864;2022-09-28T02:42:23;1.60;;;1.50;;
53714;SDS011;39608;55.630;37.864;2022-09-28T02:47:34;1.48;;;1.38;;
53714;SDS011;39608;55.630;37.864;2022-09-28T02:52:56;1.10;;;1.10;;
53714;SDS011;39608;55.630;37.864;2022-09-28T02:58:18;1.20;;;1.10;;
53714;SDS011;39608;55.630;37.864;2022-09-28T03:03:30;0.85;;;0.85;;
53714;SDS011;39608;55.630;37.864;2022-09-28T03:08:38;1.50;;;1.30;;
53714;SDS011;39608;55.630;37.864;2022-09-28T03:13:44;1.27;;;1.17;;
53714;SDS011;39608;55.630;37.864;2022-09-28T03:18:48;1.83;;;1.17;;
53714;SDS011;39608;55.630;37.864;2022-09-28T03:23:50;1.20;;;1.05;;
53714;SDS011;39608;55.630;37.864;2022-09-28T03:28:52;1.40;;;1.30;;
53714;SDS011;39608;55.630;37.864;2022-09-28T03:33:56;2.22;;;1.10;;
53714;SDS011;39608;55.630;37.864;2022-09-28T03:38:58;1.30;;;1.20;;
53714;SDS011;39608;55.630;37.864;2022-09-28T03:44:00;1.27;;;1.20;;
53714;SDS011;39608;55.630;37.864;2022-09-28T03:49:04;5.32;;;1.30;;
53714;SDS011;39608;55.630;37.864;2022-09-28T03:54:06;1.83;;;1.30;;
53714;SDS011;39608;55.630;37.864;2022-09-28T03:59:08;2.35;;;1.30;;
53714;SDS011;39608;55.630;37.864;2022-09-28T04:04:11;1.60;;;1.30;;
53714;SDS011;39608;55.630;37.864;2022-09-28T04:09:14;1.38;;;1.25;;
53714;SDS011;39608;55.630;37.864;2022-09-28T04:14:16;2.00;;;1.33;;
53714;SDS011;39608;55.630;37.864;2022-09-28T04:19:20;1.67;;;1.42;;
53714;SDS011;39608;55.630;37.864;2022-09-28T04:24:24;2.10;;;1.38;;
53714;SDS011;39608;55.630;37.864;2022-09-28T04:29:26;2.78;;;1.40;;
53714;SDS011;39608;55.630;37.864;2022-09-28T04:34:29;2.13;;;1.40;;
53714;SDS011;39608;55.630;37.864;2022-09-28T04:39:32;2.03;;;1.40;;
53714;SDS011;39608;55.630;37.864;2022-09-28T04:44:34;1.40;;;1.30;;
53714;SDS011;39608;55.630;37.864;2022-09-28T04:49:38;3.13;;;1.63;;
53714;SDS011;39608;55.630;37.864;2022-09-28T04:54:40;2.13;;;1.60;;
53714;SDS011;39608;55.630;37.864;2022-09-28T04:59:42;2.53;;;1.63;;
53714;SDS011;39608;55.630;37.864;2022-09-28T05:04:45;2.95;;;1.90;;
53714;SDS011;39608;55.630;37.864;2022-09-28T05:09:47;4.45;;;2.15;;
53714;SDS011;39608;55.630;37.864;2022-09-28T05:14:51;2.17;;;1.95;;
53714;SDS011;39608;55.630;37.864;2022-09-28T05:19:54;2.60;;;2.03;;
53714;SDS011;39608;55.630;37.864;2022-09-28T05:24:56;1.67;;;1.58;;
53714;SDS011;39608;55.630;37.864;2022-09-28T05:29:59;4.38;;;2.10;;
53714;SDS011;39608;55.630;37.864;2022-09-28T05:35:03;4.20;;;1.58;;
53714;SDS011;39608;55.630;37.864;2022-09-28T05:40:05;3.92;;;1.75;;
53714;SDS011;39608;55.630;37.864;2022-09-28T05:45:08;3.60;;;1.38;;
53714;SDS011;39608;55.630;37.864;2022-09-28T05:50:14;1.88;;;1.45;;
53714;SDS011;39608;55.630;37.864;2022-09-28T05:55:16;3.00;;;1.42;;
53714;SDS011;39608;55.630;37.864;2022-09-28T06:00:18;3.05;;;1.65;;
53714;SDS011;39608;55.630;37.864;2022-09-28T06:05:21;1.73;;;1.50;;
53714;SDS011;39608;55.630;37.864;2022-09-28T06:10:23;2.25;;;1.52;;
53714;SDS011;39608;55.630;37.864;2022-09-28T06:15:27;3.03;;;1.58;;
53714;SDS011;39608;55.630;37.864;2022-09-28T06:20:32;2.45;;;1.98;;
53714;SDS011;39608;55.630;37.864;2022-09-28T06:25:36;3.42;;;1.80;;
53714;SDS011;39608;55.630;37.864;2022-09-28T06:30:38;6.63;;;2.38;;
53714;SDS011;39608;55.630;37.864;2022-09-28T06:35:42;2.30;;;1.95;;
53714;SDS011;39608;55.630;37.864;2022-09-28T06:40:44;5.38;;;2.83;;
53714;SDS011;39608;55.630;37.864;2022-09-28T06:45:49;5.40;;;3.40;;
53714;SDS011;39608;55.630;37.864;2022-09-28T06:50:53;5.50;;;3.13;;
53714;SDS011;39608;55.630;37.864;2022-09-28T06:55:55;3.85;;;3.22;;
53714;SDS011;39608;55.630;37.864;2022-09-28T07:00:57;5.50;;;3.13;;
53714;SDS011;39608;55.630;37.864;2022-09-28T07:06:01;7.05;;;3.30;;
53714;SDS011;39608;55.630;37.864;2022-09-28T07:11:04;3.70;;;3.30;;
53714;SDS011;39608;55.630;37.864;2022-09-28T07:16:07;4.13;;;2.97;;
53714;SDS011;39608;55.630;37.864;2022-09-28T07:21:10;5.50;;;3.97;;
53714;SDS011;39608;55.630;37.864;2022-09-28T07:26:13;5.28;;;3.85;;
53714;SDS011;39608;55.630;37.864;2022-09-28T07:31:15;7.18;;;4.15;;
53714;SDS011;39608;55.630;37.864;2022-09-28T07:36:19;6.07;;;3.88;;
53714;SDS011;39608;55.630;37.864;2022-09-28T07:41:22;3.55;;;3.10;;
53714;SDS011;39608;55.630;37.864;2022-09-28T07:46:31;4.03;;;3.60;;
53714;SDS011;39608;55.630;37.864;2022-09-28T07:51:35;7.07;;;3.60;;
53714;SDS011;39608;55.630;37.864;2022-09-28T07:56:37;5.03;;;3.17;;
53714;SDS011;39608;55.630;37.864;2022-09-28T08:01:39;5.38;;;3.65;;
53714;SDS011;39608;55.630;37.864;2022-09-28T08:06:43;5.05;;;4.10;;
53714;SDS011;39608;55.630;37.864;2022-09-28T08:11:47;5.60;;;3.75;;
53714;SDS011;39608;55.630;37.864;2022-09-28T08:16:50;4.80;;;3.35;;
53714;SDS011;39608;55.630;37.864;2022-09-28T08:21:54;6.38;;;3.90;;
53714;SDS011;39608;55.630;37.864;2022-09-28T08:26:56;5.45;;;3.42;;
53714;SDS011;39608;55.630;37.864;2022-09-28T08:31:58;4.80;;;3.08;;
53714;SDS011;39608;55.630;37.864;2022-09-28T08:37:02;6.80;;;3.55;;
53714;SDS011;39608;55.630;37.864;2022-09-28T08:42:12;5.82;;;3.65;;
53714;SDS011;39608;55.630;37.864;2022-09-28T08:47:24;4.88;;;3.83;;
53714;SDS011;39608;55.630;37.864;2022-09-28T08:52:50;5.43;;;3.53;;
53714;SDS011;39608;55.630;37.864;2022-09-28T08:57:59;3.72;;;3.38;;
53714;SDS011;39608;55.630;37.864;2022-09-28T09:03:05;6.68;;;4.30;;
53714;SDS011;39608;55.630;37.864;2022-09-28T09:08:17;5.50;;;4.20;;
53714;SDS011;39608;55.630;37.864;2022-09-28T09:19:13;3.83;;;3.28;;
53714;SDS011;39608;55.630;37.864;2022-09-28T09:24:23;4.75;;;3.75;;
53714;SDS011;39608;55.630;37.864;2022-09-28T09:29:28;8.02;;;3.50;;
53714;SDS011;39608;55.630;37.864;2022-09-28T09:34:40;5.80;;;3.22;;
53714;SDS011;39608;55.630;37.864;2022-09-28T09:40:01;4.55;;;3.42;;
53714;SDS011;39608;55.630;37.864;2022-09-28T09:45:28;4.93;;;3.47;;
53714;SDS011;39608;55.630;37.864;2022-09-28T09:50:43;6.18;;;4.72;;
53714;SDS011;39608;55.630;37.864;2022-09-28T09:55:51;7.35;;;4.32;;
53714;SDS011;39608;55.630;37.864;2022-09-28T10:01:03;7.22;;;4.28;;
53714;SDS011;39608;55.630;37.864;2022-09-28T10:06:10;7.28;;;4.90;;
53714;SDS011;39608;55.630;37.864;2022-09-28T10:11:16;6.45;;;5.35;;
53714;SDS011;39608;55.630;37.864;2022-09-28T10:16:22;8.77;;;6.28;;
53714;SDS011;39608;55.630;37.864;2022-09-28T10:21:25;6.80;;;5.20;;
53714;SDS011;39608;55.630;37.864;2022-09-28T10:26:31;8.27;;;5.88;;
53714;SDS011;39608;55.630;37.864;2022-09-28T10:31:37;8.45;;;6.05;;
53714;SDS011;39608;55.630;37.864;2022-09-28T10:36:44;10.50;;;6.25;;
53714;SDS011;39608;55.630;37.864;2022-09-28T10:41:51;19.02;;;5.75;;
53714;SDS011;39608;55.630;37.864;2022-09-28T10:52:00;9.68;;;4.82;;
53714;SDS011;39608;55.630;37.864;2022-09-28T10:57:09;8.43;;;5.20;;
53714;SDS011;39608;55.630;37.864;2022-09-28T11:02:29;9.35;;;6.00;;
53714;SDS011;39608;55.630;37.864;2022-09-28T11:07:33;10.85;;;6.20;;
53714;SDS011;39608;55.630;37.864;2022-09-28T11:12:47;11.18;;;5.80;;
53714;SDS011;39608;55.630;37.864;2022-09-28T11:17:51;7.28;;;5.63;;
53714;SDS011;39608;55.630;37.864;2022-09-28T11:22:54;10.27;;;6.15;;
53714;SDS011;39608;55.630;37.864;2022-09-28T11:27:59;11.45;;;7.07;;
53714;SDS011;39608;55.630;37.864;2022-09-28T11:33:05;11.93;;;5.80;;
53714;SDS011;39608;55.630;37.864;2022-09-28T11:38:16;12.88;;;7.30;;
53714;SDS011;39608;55.630;37.864;2022-09-28T11:43:34;9.40;;;7.00;;
53714;SDS011;39608;55.630;37.864;2022-09-28T11:48:51;12.05;;;7.40;;
53714;SDS011;39608;55.630;37.864;2022-09-28T11:54:01;14.02;;;7.20;;
53714;SDS011;39608;55.630;37.864;2022-09-28T11:59:16;18.73;;;7.10;;
53714;SDS011;39608;55.630;37.864;2022-09-28T12:04:24;13.82;;;6.95;;
53714;SDS011;39608;55.630;37.864;2022-09-28T12:09:35;9.02;;;5.38;;
53714;SDS011;39608;55.630;37.864;2022-09-28T12:14:44;10.52;;;6.10;;
53714;SDS011;39608;55.630;37.864;2022-09-28T12:19:48;10.63;;;5.35;;
53714;SDS011;39608;55.630;37.864;2022-09-28T12:24:55;10.53;;;5.43;;
53714;SDS011;39608;55.630;37.864;2022-09-28T12:30:01;10.82;;;5.28;;
53714;SDS011;39608;55.630;37.864;2022-09-28T12:35:12;9.98;;;5.35;;
53714;SDS011;39608;55.630;37.864;2022-09-28T12:40:24;13.82;;;5.55;;
53714;SDS011;39608;55.630;37.864;2022-09-28T12:45:39;9.50;;;5.70;;
53714;SDS011;39608;55.630;37.864;2022-09-28T12:50:55;10.68;;;6.40;;
53714;SDS011;39608;55.630;37.864;2022-09-28T12:56:10;15.95;;;6.22;;
53714;SDS011;39608;55.630;37.864;2022-09-28T13:01:20;20.10;;;11.30;;
53714;SDS011;39608;55.630;37.864;2022-09-28T13:06:43;11.27;;;7.03;;
53714;SDS011;39608;55.630;37.864;2022-09-28T13:12:03;16.63;;;6.15;;
53714;SDS011;39608;55.630;37.864;2022-09-28T13:17:15;9.15;;;5.93;;
53714;SDS011;39608;55.630;37.864;2022-09-28T13:22:28;7.57;;;5.20;;
53714;SDS011;39608;55.630;37.864;2022-09-28T13:27:39;15.40;;;6.22;;
53714;SDS011;39608;55.630;37.864;2022-09-28T13:32:46;12.02;;;5.93;;
53714;SDS011;39608;55.630;37.864;2022-09-28T13:38:27;12.50;;;5.88;;
53714;SDS011;39608;55.630;37.864;2022-09-28T13:43:32;16.33;;;6.32;;
53714;SDS011;39608;55.630;37.864;2022-09-28T13:48:44;19.83;;;6.15;;
53714;SDS011;39608;55.630;37.864;2022-09-28T13:59:21;14.07;;;5.85;;
53714;SDS011;39608;55.630;37.864;2022-09-28T14:10:08;13.75;;;5.25;;
53714;SDS011;39608;55.630;37.864;2022-09-28T14:15:39;15.10;;;5.97;;
53714;SDS011;39608;55.630;37.864;2022-09-28T14:20:52;10.38;;;4.65;;
53714;SDS011;39608;55.630;37.864;2022-09-28T14:26:16;16.15;;;4.63;;
53714;SDS011;39608;55.630;37.864;2022-09-28T14:31:31;21.55;;;5.25;;
53714;SDS011;39608;55.630;37.864;2022-09-28T14:36:36;10.10;;;4.82;;
53714;SDS011;39608;55.630;37.864;2022-09-28T14:42:09;13.43;;;4.70;;
53714;SDS011;39608;55.630;37.864;2022-09-28T14:47:24;18.53;;;5.10;;
53714;SDS011;39608;55.630;37.864;2022-09-28T14:52:39;8.93;;;4.35;;
53714;SDS011;39608;55.630;37.864;2022-09-28T14:57:50;9.50;;;4.63;;
53714;SDS011;39608;55.630;37.864;2022-09-28T15:02:53;10.23;;;4.70;;
53714;SDS011;39608;55.630;37.864;2022-09-28T15:08:01;5.80;;;3.70;;
53714;SDS011;39608;55.630;37.864;2022-09-28T15:13:14;9.07;;;3.90;;
53714;SDS011;39608;55.630;37.864;2022-09-28T15:24:26;8.77;;;4.80;;
53714;SDS011;39608;55.630;37.864;2022-09-28T15:29:30;9.95;;;4.38;;
53714;SDS011;39608;55.630;37.864;2022-09-28T15:34:33;7.75;;;3.83;;
53714;SDS011;39608;55.630;37.864;2022-09-28T15:39:55;14.02;;;3.90;;
53714;SDS011;39608;55.630;37.864;2022-09-28T15:45:00;12.43;;;3.75;;
53714;SDS011;39608;55.630;37.864;2022-09-28T15:50:09;11.32;;;3.50;;
53714;SDS011;39608;55.630;37.864;2022-09-28T15:55:24;7.72;;;3.50;;
53714;SDS011;39608;55.630;37.864;2022-09-28T16:00:29;6.15;;;4.20;;
53714;SDS011;39608;55.630;37.864;2022-09-28T16:05:37;5.30;;;3.80;;
53714;SDS011;39608;55.630;37.864;2022-09-28T16:10:49;6.07;;;3.50;;
53714;SDS011;39608;55.630;37.864;2022-09-28T16:15:57;8.75;;;3.47;;
53714;SDS011;39608;55.630;37.864;2022-09-28T16:26:29;4.93;;;3.15;;
53714;SDS011;39608;55.630;37.864;2022-09-28T16:31:35;5.95;;;2.83;;
53714;SDS011;39608;55.630;37.864;2022-09-28T16:36:41;3.90;;;2.80;;
53714;SDS011;39608;55.630;37.864;2022-09-28T16:41:47;7.32;;;2.60;;
53714;SDS011;39608;55.630;37.864;2022-09-28T16:46:52;4.70;;;2.95;;
53714;SDS011;39608;55.630;37.864;2022-09-28T16:51:56;4.40;;;2.60;;
53714;SDS011;39608;55.630;37.864;2022-09-28T16:57:00;3.42;;;2.67;;
53714;SDS011;39608;55.630;37.864;2022-09-28T17:02:14;5.63;;;2.95;;
53714;SDS011;39608;55.630;37.864;2022-09-28T17:07:18;5.05;;;2.72;;
53714;SDS011;39608;55.630;37.864;2022-09-28T17:12:22;2.80;;;2.38;;
53714;SDS011;39608;55.630;37.864;2022-09-28T17:17:28;4.38;;;2.90;;
53714;SDS011;39608;55.630;37.864;2022-09-28T17:22:30;3.33;;;2.45;;
53714;SDS011;39608;55.630;37.864;2022-09-28T17:27:34;11.70;;;2.75;;
53714;SDS011;39608;55.630;37.864;2022-09-28T17:32:37;7.55;;;3.60;;
53714;SDS011;39608;55.630;37.864;2022-09-28T17:42:48;6.28;;;3.70;;
53714;SDS011;39608;55.630;37.864;2022-09-28T17:47:50;7.38;;;4.30;;
53714;SDS011;39608;55.630;37.864;2022-09-28T17:52:54;7.47;;;3.90;;
53714;SDS011;39608;55.630;37.864;2022-09-28T17:58:01;13.75;;;3.70;;
53714;SDS011;39608;55.630;37.864;2022-09-28T18:03:12;8.50;;;3.65;;
53714;SDS011;39608;55.630;37.864;2022-09-28T18:08:16;11.30;;;4.05;;
53714;SDS011;39608;55.630;37.864;2022-09-28T18:13:22;6.30;;;3.70;;
53714;SDS011;39608;55.630;37.864;2022-09-28T18:18:29;9.38;;;3.78;;
53714;SDS011;39608;55.630;37.864;2022-09-28T18:23:33;15.52;;;4.38;;
53714;SDS011;39608;55.630;37.864;2022-09-28T18:28:38;11.73;;;4.25;;
53714;SDS011;39608;55.630;37.864;2022-09-28T18:33:40;15.48;;;4.13;;
53714;SDS011;39608;55.630;37.864;2022-09-28T18:38:42;6.45;;;3.63;;
53714;SDS011;39608;55.630;37.864;2022-09-28T18:43:47;8.75;;;3.92;;
53714;SDS011;39608;55.630;37.864;2022-09-28T18:48:50;8.77;;;3.80;;
53714;SDS011;39608;55.630;37.864;2022-09-28T18:53:52;10.40;;;4.30;;
53714;SDS011;39608;55.630;37.864;2022-09-28T18:58:56;11.68;;;4.15;;
53714;SDS011;39608;55.630;37.864;2022-09-28T19:04:01;12.93;;;4.18;;
53714;SDS011;39608;55.630;37.864;2022-09-28T19:09:05;15.60;;;5.22;;
53714;SDS011;39608;55.630;37.864;2022-09-28T19:14:09;11.93;;;4.95;;
53714;SDS011;39608;55.630;37.864;2022-09-28T19:19:15;9.73;;;4.97;;
53714;SDS011;39608;55.630;37.864;2022-09-28T19:24:18;11.60;;;4.55;;
53714;SDS011;39608;55.630;37.864;2022-09-28T19:29:22;8.38;;;4.47;;
53714;SDS011;39608;55.630;37.864;2022-09-28T19:34:25;5.65;;;3.95;;
53714;SDS011;39608;55.630;37.864;2022-09-28T19:39:29;8.52;;;4.38;;
53714;SDS011;39608;55.630;37.864;2022-09-28T19:44:33;13.10;;;4.90;;
53714;SDS011;39608;55.630;37.864;2022-09-28T19:49:37;11.90;;;4.80;;
53714;SDS011;39608;55.630;37.864;2022-09-28T19:54:41;8.50;;;4.68;;
53714;SDS011;39608;55.630;37.864;2022-09-28T19:59:46;7.20;;;4.72;;
53714;SDS011;39608;55.630;37.864;2022-09-28T20:04:48;6.60;;;4.65;;
53714;SDS011;39608;55.630;37.864;2022-09-28T20:09:50;7.38;;;4.20;;
53714;SDS011;39608;55.630;37.864;2022-09-28T20:14:54;7.80;;;4.10;;
53714;SDS011;39608;55.630;37.864;2022-09-28T20:19:57;13.27;;;4.10;;
53714;SDS011;39608;55.630;37.864;2022-09-28T20:24:59;10.02;;;4.20;;
53714;SDS011;39608;55.630;37.864;2022-09-28T20:30:05;7.18;;;4.30;;
53714;SDS011;39608;55.630;37.864;2022-09-28T20:35:08;10.10;;;3.95;;
53714;SDS011;39608;55.630;37.864;2022-09-28T20:40:10;10.40;;;4.03;;
53714;SDS011;39608;55.630;37.864;2022-09-28T20:45:13;7.65;;;4.28;;
53714;SDS011;39608;55.630;37.864;2022-09-28T20:50:16;7.07;;;4.35;;
53714;SDS011;39608;55.630;37.864;2022-09-28T20:55:18;7.55;;;3.95;;
53714;SDS011;39608;55.630;37.864;2022-09-28T21:00:21;8.05;;;3.70;;
53714;SDS011;39608;55.630;37.864;2022-09-28T21:05:23;4.65;;;3.53;;
53714;SDS011;39608;55.630;37.864;2022-09-28T21:10:25;5.75;;;3.72;;
53714;SDS011;39608;55.630;37.864;2022-09-28T21:15:31;8.35;;;3.53;;
53714;SDS011;39608;55.630;37.864;2022-09-28T21:20:34;2.88;;;2.53;;
53714;SDS011;39608;55.630;37.864;2022-09-28T21:25:36;4.57;;;2.85;;
53714;SDS011;39608;55.630;37.864;2022-09-28T21:30:40;6.43;;;3.38;;
53714;SDS011;39608;55.630;37.864;2022-09-28T21:35:45;8.38;;;3.83;;
53714;SDS011;39608;55.630;37.864;2022-09-28T21:40:47;5.97;;;3.90;;
53714;SDS011;39608;55.630;37.864;2022-09-28T21:45:58;4.82;;;3.78;;
53714;SDS011;39608;55.630;37.864;2022-09-28T21:51:01;12.57;;;4.00;;
53714;SDS011;39608;55.630;37.864;2022-09-28T21:56:05;5.65;;;3.55;;
53714;SDS011;39608;55.630;37.864;2022-09-28T22:01:10;7.40;;;3.78;;
53714;SDS011;39608;55.630;37.864;2022-09-28T22:06:14;7.72;;;3.70;;
53714;SDS011;39608;55.630;37.864;2022-09-28T22:11:18;4.93;;;3.20;;
53714;SDS011;39608;55.630;37.864;2022-09-28T22:16:24;4.82;;;3.65;;
53714;SDS011;39608;55.630;37.864;2022-09-28T22:21:28;5.72;;;3.83;;
53714;SDS011;39608;55.630;37.864;2022-09-28T22:26:31;6.72;;;3.35;;
53714;SDS011;39608;55.630;37.864;2022-09-28T22:31:37;5.30;;;4.28;;
53714;SDS011;39608;55.630;37.864;2022-09-28T22:36:40;4.07;;;3.67;;
53714;SDS011;39608;55.630;37.864;2022-09-28T22:41:42;6.75;;;4.63;;
53714;SDS011;39608;55.630;37.864;2022-09-28T22:46:45;5.03;;;4.18;;
53714;SDS011;39608;55.630;37.864;2022-09-28T22:51:47;7.15;;;4.43;;
53714;SDS011;39608;55.630;37.864;2022-09-28T22:56:50;6.20;;;4.25;;
53714;SDS011;39608;55.630;37.864;2022-09-28T23:01:53;5.80;;;4.30;;
53714;SDS011;39608;55.630;37.864;2022-09-28T23:06:55;6.32;;;5.00;;
53714;SDS011;39608;55.630;37.864;2022-09-28T23:11:57;5.53;;;4.47;;
53714;SDS011;39608;55.630;37.864;2022-09-28T23:17:00;11.10;;;4.82;;
53714;SDS011;39608;55.630;37.864;2022-09-28T23:22:02;6.63;;;4.57;;
53714;SDS011;39608;55.630;37.864;2022-09-28T23:27:04;8.23;;;3.95;;
53714;SDS011;39608;55.630;37.864;2022-09-28T23:32:08;5.82;;;4.25;;
53714;SDS011;39608;55.630;37.864;2022-09-28T23:37:10;7.57;;;3.78;;
53714;SDS011;39608;55.630;37.864;2022-09-28T23:42:12;8.25;;;4.78;;
53714;SDS011;39608;55.630;37.864;2022-09-28T23:47:15;5.82;;;4.72;;
53714;SDS011;39608;55.630;37.864;2022-09-28T23:52:17;5.28;;;4.10;;
53714;SDS011;39608;55.630;37.864;2022-09-28T23:57:19;6.65;;;4.70;;
